createdAt,value
2019-04-11T00:01:16.374Z,24.60
2019-04-11T00:03:43.964Z,25.37
2019-04-11T00:06:11.828Z,24.63
2019-04-11T00:08:39.275Z,23.50
2019-04-11T00:11:06.536Z,24.60
2019-04-11T00:13:36.195Z,25.50
2019-04-11T00:16:04.746Z,24.00
2019-04-11T00:18:32.458Z,23.73
2019-04-11T00:21:00.304Z,24.90
2019-04-11T00:23:27.726Z,24.13
2019-04-11T00:25:55.940Z,25.90
2019-04-11T00:28:23.699Z,25.83
2019-04-11T00:30:52.444Z,25.17
2019-04-11T00:33:20.208Z,26.30
2019-04-11T00:35:48.615Z,25.27
2019-04-11T00:38:16.077Z,26.97
2019-04-11T00:40:43.745Z,26.60
2019-04-11T00:43:11.459Z,25.80
2019-04-11T00:45:40.006Z,28.50
2019-04-11T00:48:07.558Z,26.27
2019-04-11T00:50:35.080Z,26.40
2019-04-11T00:53:03.590Z,26.27
2019-04-11T00:55:31.469Z,26.23
2019-04-11T00:57:59.220Z,28.13
2019-04-11T01:00:27.099Z,24.57
2019-04-11T01:02:55.831Z,27.60
2019-04-11T01:05:23.549Z,28.00
2019-04-11T01:07:51.291Z,27.30
2019-04-11T01:10:18.896Z,29.00
2019-04-11T01:12:46.951Z,26.00
2019-04-11T01:15:17.531Z,27.37
2019-04-11T01:17:45.433Z,27.07
2019-04-11T01:20:13.362Z,26.83
2019-04-11T01:22:40.832Z,29.00
2019-04-11T01:25:08.430Z,26.83
2019-04-11T01:27:36.741Z,27.53
2019-04-11T01:30:06.184Z,28.33
2019-04-11T01:32:34.654Z,27.00
2019-04-11T01:35:02.268Z,26.93
2019-04-11T01:37:29.766Z,27.80
2019-04-11T01:40:01.428Z,28.03
2019-04-11T01:42:29.681Z,26.93
2019-04-11T01:44:57.042Z,26.87
2019-04-11T01:47:44.760Z,28.17
2019-04-11T01:50:14.152Z,26.60
2019-04-11T01:52:42.431Z,27.67
2019-04-11T01:55:10.269Z,27.20
2019-04-11T01:57:38.209Z,26.90
2019-04-11T02:00:06.601Z,25.33
2019-04-11T02:02:54.841Z,26.93
2019-04-11T02:05:25.187Z,27.97
2019-04-11T02:07:53.230Z,25.30
2019-04-11T02:10:21.048Z,25.93
2019-04-11T02:12:48.399Z,25.70
2019-04-11T02:15:16.468Z,24.40
2019-04-11T02:17:43.889Z,26.17
2019-04-11T02:20:12.538Z,25.17
2019-04-11T02:22:43.854Z,25.80
2019-04-11T02:25:49.131Z,25.70
2019-04-11T02:28:20.295Z,25.20
2019-04-11T02:30:51.243Z,23.50
2019-04-11T02:33:21.611Z,24.90
2019-04-11T02:35:49.483Z,23.40
2019-04-11T02:38:18.731Z,25.50
2019-04-11T02:40:49.088Z,23.90
2019-04-11T02:43:17.426Z,25.17
2019-04-11T02:45:58.815Z,23.07
2019-04-11T02:48:16.337Z,24.20
2019-04-11T02:50:45.720Z,23.60
2019-04-11T02:53:14.764Z,25.33
2019-04-11T02:55:43.901Z,23.80
2019-04-11T02:58:12.526Z,23.40
2019-04-11T03:00:40.420Z,23.20
2019-04-11T03:03:10.101Z,23.40
2019-04-11T03:05:39.319Z,22.83
2019-04-11T03:08:11.174Z,23.63
2019-04-11T03:10:37.575Z,21.60
2019-04-11T03:13:05.352Z,22.53
2019-04-11T03:15:48.472Z,22.43
2019-04-11T03:18:07.299Z,22.20
2019-04-11T03:20:40.723Z,21.77
2019-04-11T03:23:07.509Z,20.70
2019-04-11T03:25:33.067Z,21.13
2019-04-11T03:28:01.605Z,20.60
2019-04-11T03:30:48.962Z,23.23
2019-04-11T03:36:28.123Z,21.53
2019-04-11T03:38:18.729Z,23.40
2019-04-11T03:40:48.171Z,21.00
2019-04-11T03:43:10.761Z,21.67
2019-04-11T03:45:47.980Z,21.00
2019-04-11T03:48:10.555Z,22.80
2019-04-11T03:50:29.517Z,21.20
2019-04-11T03:52:56.170Z,20.30
2019-04-11T03:55:25.666Z,22.17
2019-04-11T03:57:54.309Z,23.40
2019-04-11T04:00:23.726Z,20.90
2019-04-11T04:02:52.554Z,19.90
2019-04-11T04:05:21.700Z,22.00
2019-04-11T04:07:49.434Z,21.40
2019-04-11T04:10:20.021Z,20.57
2019-04-11T04:12:48.176Z,20.77
2019-04-11T04:16:04.018Z,21.97
2019-04-11T04:18:43.733Z,21.00
2019-04-11T04:21:30.992Z,20.87
2019-04-11T04:24:01.355Z,20.97
2019-04-11T04:26:29.211Z,19.50
2019-04-11T04:28:57.774Z,21.23
2019-04-11T04:31:28.536Z,19.37
2019-04-11T04:33:57.772Z,22.00
2019-04-11T04:36:27.278Z,20.90
2019-04-11T04:38:57.127Z,21.40
2019-04-11T04:41:37.514Z,22.93
2019-04-11T04:43:57.546Z,22.90
2019-04-11T04:46:39.695Z,21.70
2019-04-11T04:48:55.981Z,22.60
2019-04-11T04:51:24.294Z,22.93
2019-04-11T04:53:52.290Z,21.77
2019-04-11T04:56:24.134Z,22.30
2019-04-11T04:58:50.687Z,21.87
2019-04-11T05:01:19.279Z,21.67
2019-04-11T05:03:48.753Z,21.17
2019-04-11T05:06:18.489Z,20.37
2019-04-11T05:08:47.146Z,21.13
2019-04-11T05:11:15.865Z,21.83
2019-04-11T05:13:49.294Z,22.20
2019-04-11T05:16:17.783Z,20.83
2019-04-11T05:18:44.505Z,20.20
2019-04-11T05:21:12.865Z,21.20
2019-04-11T05:23:40.228Z,21.77
2019-04-11T05:26:08.697Z,21.47
2019-04-11T05:28:37.198Z,20.10
2019-04-11T05:31:05.969Z,20.37
2019-04-11T05:33:34.916Z,21.90
2019-04-11T05:36:02.428Z,21.10
2019-04-11T05:38:29.676Z,20.60
2019-04-11T05:40:56.989Z,21.93
2019-04-11T05:43:26.823Z,20.47
2019-04-11T05:45:55.163Z,22.17
2019-04-11T05:49:01.117Z,20.03
2019-04-11T05:51:36.954Z,20.40
2019-04-11T05:54:05.935Z,20.27
2019-04-11T05:56:30.799Z,20.37
2019-04-11T05:59:05.357Z,20.10
2019-04-11T06:01:42.283Z,19.93
2019-04-11T06:04:20.486Z,21.00
2019-04-11T06:06:52.834Z,20.07
2019-04-11T06:09:30.384Z,19.23
2019-04-11T06:12:14.975Z,19.57
2019-04-11T06:14:51.314Z,18.57
2019-04-11T06:17:20.377Z,18.17
2019-04-11T06:20:08.226Z,18.17
2019-04-11T06:22:40.183Z,18.83
2019-04-11T06:25:46.002Z,20.40
2019-04-11T06:28:16.458Z,20.53
2019-04-11T06:31:04.459Z,18.73
2019-04-11T06:33:36.875Z,19.77
2019-04-11T06:36:26.683Z,19.57
2019-04-11T06:39:05.052Z,21.03
2019-04-11T06:41:50.831Z,19.50
2019-04-11T06:44:48.024Z,20.07
2019-04-11T06:47:27.199Z,19.87
2019-04-11T06:50:11.036Z,19.50
2019-04-11T06:52:39.268Z,18.80
2019-04-11T06:55:26.882Z,19.13
2019-04-11T06:58:00.450Z,20.27
2019-04-11T07:00:29.305Z,19.13
2019-04-11T07:02:59.347Z,20.17
2019-04-11T07:05:29.027Z,19.03
2019-04-11T07:07:57.827Z,19.90
2019-04-11T07:10:31.183Z,19.07
2019-04-11T07:13:05.602Z,19.70
2019-04-11T07:15:41.620Z,18.03
2019-04-11T07:18:27.008Z,20.83
2019-04-11T07:21:00.537Z,19.17
2019-04-11T07:23:47.018Z,19.37
2019-04-11T07:26:46.391Z,20.30
2019-04-11T07:29:51.279Z,20.00
2019-04-11T07:32:22.149Z,20.07
2019-04-11T07:35:09.034Z,20.73
2019-04-11T07:37:38.747Z,21.57
2019-04-11T07:40:29.344Z,20.27
2019-04-11T07:43:31.772Z,20.57
2019-04-11T07:46:25.475Z,19.20
2019-04-11T07:49:05.917Z,21.00
2019-04-11T07:51:36.397Z,21.33
2019-04-11T07:54:06.516Z,21.57
2019-04-11T07:56:52.706Z,20.33
2019-04-11T07:59:35.165Z,21.07
2019-04-11T08:02:23.644Z,21.00
2019-04-11T08:05:19.222Z,20.50
2019-04-11T08:08:25.717Z,21.20
2019-04-11T08:11:21.373Z,21.13
2019-04-11T08:14:14.118Z,23.27
2019-04-11T08:17:29.000Z,21.23
2019-04-11T08:20:07.936Z,20.77
2019-04-11T08:22:55.115Z,21.30
2019-04-11T08:25:37.804Z,21.20
2019-04-11T08:28:09.283Z,21.33
2019-04-11T08:30:57.633Z,21.37
2019-04-11T08:33:26.714Z,22.60
2019-04-11T08:36:16.045Z,21.57
2019-04-11T08:38:44.607Z,21.70
2019-04-11T08:41:53.077Z,20.90
2019-04-11T08:44:25.863Z,20.60
2019-04-11T08:46:58.085Z,23.00
2019-04-11T08:49:55.535Z,20.83
2019-04-11T08:52:38.174Z,22.33
2019-04-11T08:55:15.935Z,23.67
2019-04-11T08:57:44.884Z,21.40
2019-04-11T09:00:33.212Z,22.67
2019-04-11T09:03:19.690Z,22.43
2019-04-11T09:06:08.455Z,21.53
2019-04-11T09:08:58.583Z,21.63
2019-04-11T09:11:49.106Z,22.83
2019-04-11T09:14:35.897Z,23.07
2019-04-11T09:17:14.450Z,21.27
2019-04-11T09:20:00.093Z,22.67
2019-04-11T09:22:37.352Z,22.10
2019-04-11T09:25:30.237Z,20.70
2019-04-11T09:28:15.329Z,24.00
2019-04-11T09:31:05.139Z,20.70
2019-04-11T09:33:57.774Z,23.77
2019-04-11T09:36:40.830Z,24.17
2019-04-11T09:39:26.984Z,22.43
2019-04-11T09:42:17.765Z,23.07
2019-04-11T09:45:11.052Z,23.00
2019-04-11T09:48:09.344Z,21.77
2019-04-11T09:50:57.207Z,22.27
2019-04-11T09:53:24.750Z,23.33
2019-04-11T09:56:10.976Z,21.30
2019-04-11T09:58:38.630Z,24.60
2019-04-11T10:01:35.116Z,23.13
2019-04-11T10:04:03.632Z,23.43
2019-04-11T10:06:44.747Z,23.50
2019-04-11T10:09:11.987Z,21.73
2019-04-11T10:11:48.518Z,22.00
2019-04-11T10:14:17.659Z,21.67
2019-04-11T10:17:04.434Z,22.00
2019-04-11T10:19:40.407Z,22.10
2019-04-11T10:22:27.660Z,24.10
2019-04-11T10:25:01.053Z,21.20
2019-04-11T10:27:48.963Z,21.40
2019-04-11T10:30:34.837Z,22.20
2019-04-11T10:33:06.680Z,22.50
2019-04-11T10:35:59.187Z,21.00
2019-04-11T10:38:28.656Z,22.10
2019-04-11T10:41:04.521Z,22.60
2019-04-11T10:43:32.148Z,22.90
2019-04-11T10:46:28.149Z,22.60
2019-04-11T10:49:03.422Z,21.07
2019-04-11T10:51:42.305Z,20.63
2019-04-11T10:54:11.396Z,20.70
2019-04-11T10:56:59.898Z,20.93
2019-04-11T10:59:30.374Z,22.97
2019-04-11T11:02:18.317Z,22.03
2019-04-11T11:04:49.008Z,20.73
2019-04-11T11:07:20.305Z,20.40
2019-04-11T11:10:09.239Z,23.30
2019-04-11T11:12:57.322Z,20.60
2019-04-11T11:15:27.500Z,21.70
2019-04-11T11:18:38.216Z,20.83
2019-04-11T11:20:53.945Z,20.67
2019-04-11T11:23:33.462Z,20.50
2019-04-11T11:26:22.695Z,20.97
2019-04-11T11:29:11.610Z,20.60
2019-04-11T11:31:40.797Z,20.33
2019-04-11T11:34:19.440Z,20.63
2019-04-11T11:37:04.922Z,19.90
2019-04-11T11:39:39.496Z,20.50
2019-04-11T11:42:24.886Z,20.77
2019-04-11T11:45:05.834Z,20.50
2019-04-11T11:48:08.867Z,20.17
2019-04-11T11:50:34.924Z,21.57
2019-04-11T11:53:28.322Z,22.00
2019-04-11T11:55:55.751Z,21.97
2019-04-11T11:58:43.532Z,21.27
2019-04-11T12:01:11.692Z,21.17
2019-04-11T12:04:00.179Z,22.43
2019-04-11T12:06:27.124Z,20.13
2019-04-11T12:09:20.370Z,21.87
2019-04-11T12:11:52.949Z,19.97
2019-04-11T12:14:44.938Z,19.80
2019-04-11T12:17:47.085Z,20.50
2019-04-11T12:20:22.863Z,20.33
2019-04-11T12:22:52.085Z,21.80
2019-04-11T12:25:25.180Z,19.53
2019-04-11T12:28:15.336Z,21.97
2019-04-11T12:30:48.549Z,21.60
2019-04-11T12:33:35.343Z,20.67
2019-04-11T12:36:12.449Z,21.90
2019-04-11T12:38:54.684Z,20.13
2019-04-11T12:41:28.461Z,21.50
2019-04-11T12:44:29.489Z,22.57
2019-04-11T12:47:14.712Z,20.93
2019-04-11T12:50:03.439Z,20.70
2019-04-11T12:52:56.471Z,21.40
2019-04-11T12:55:29.714Z,19.97
2019-04-11T12:58:15.350Z,22.50
2019-04-11T13:00:51.725Z,20.73
2019-04-11T13:03:50.393Z,20.73
2019-04-11T13:06:35.382Z,20.80
2019-04-11T13:09:21.868Z,20.90
2019-04-11T13:11:50.493Z,20.70
2019-04-11T13:14:29.781Z,20.40
2019-04-11T13:16:58.368Z,20.70
2019-04-11T13:19:47.984Z,20.83
2019-04-11T13:22:19.385Z,20.00
2019-04-11T13:25:05.220Z,19.90
2019-04-11T13:27:37.070Z,20.20
2019-04-11T13:30:34.984Z,19.67
2019-04-11T13:33:06.286Z,21.57
2019-04-11T13:35:57.352Z,20.03
2019-04-11T13:38:33.468Z,22.27
2019-04-11T13:41:20.678Z,22.33
2019-04-11T13:44:04.100Z,20.30
2019-04-11T13:46:48.791Z,20.33
2019-04-11T13:49:29.433Z,20.50
2019-04-11T13:52:28.191Z,21.33
2019-04-11T13:55:16.176Z,20.93
2019-04-11T13:58:05.617Z,21.40
2019-04-11T14:00:52.601Z,21.07
2019-04-11T14:03:48.666Z,19.87
2019-04-11T14:06:38.067Z,21.13
2019-04-11T14:09:30.479Z,21.03
2019-04-11T14:12:04.774Z,21.77
2019-04-11T14:14:38.248Z,20.43
2019-04-11T14:17:12.016Z,21.20
2019-04-11T14:19:58.225Z,19.97
2019-04-11T14:22:29.934Z,19.60
2019-04-11T14:25:15.886Z,20.40
2019-04-11T14:27:43.620Z,20.13
2019-04-11T14:30:37.749Z,20.40
2019-04-11T14:33:04.963Z,21.10
2019-04-11T14:35:50.535Z,20.20
2019-04-11T14:38:19.120Z,19.80
2019-04-11T14:41:05.950Z,20.40
2019-04-11T14:43:40.708Z,19.97
2019-04-11T14:46:27.713Z,19.73
2019-04-11T14:49:00.748Z,20.67
2019-04-11T14:51:53.648Z,20.83
2019-04-11T14:54:49.227Z,20.20
2019-04-11T14:57:39.198Z,20.33
2019-04-11T15:00:18.202Z,20.30
2019-04-11T15:03:04.472Z,19.23
2019-04-11T15:05:53.858Z,19.87
2019-04-11T15:08:39.009Z,20.27
2019-04-11T15:11:25.979Z,21.07
2019-04-11T15:13:56.489Z,19.53
2019-04-11T15:16:49.625Z,19.00
2019-04-11T15:19:16.890Z,19.00
2019-04-11T15:22:03.966Z,18.90
2019-04-11T15:24:31.877Z,20.50
2019-04-11T15:27:17.430Z,20.23
2019-04-11T15:29:45.884Z,19.20
2019-04-11T15:32:27.420Z,18.40
2019-04-11T15:34:57.730Z,18.30
2019-04-11T15:37:47.353Z,18.70
2019-04-11T15:40:26.776Z,19.17
2019-04-11T15:43:13.014Z,19.43
2019-04-11T15:46:09.976Z,18.40
2019-04-11T15:49:02.865Z,20.00
2019-04-11T15:51:37.471Z,18.83
2019-04-11T15:54:24.783Z,17.50
2019-04-11T15:56:56.131Z,18.33
2019-04-11T15:59:45.377Z,18.70
2019-04-11T16:02:22.717Z,20.03
2019-04-11T16:05:09.829Z,19.10
2019-04-11T16:08:02.703Z,17.43
2019-04-11T16:10:31.862Z,18.37
2019-04-11T16:13:06.389Z,18.40
2019-04-11T16:15:34.248Z,18.33
2019-04-11T16:18:21.119Z,18.50
2019-04-11T16:20:51.645Z,17.80
2019-04-11T16:23:39.474Z,18.30
2019-04-11T16:26:09.960Z,19.03
2019-04-11T16:28:55.910Z,16.87
2019-04-11T16:31:27.266Z,15.27
2019-04-11T16:34:08.458Z,16.50
2019-04-11T16:36:56.422Z,17.87
2019-04-11T16:39:55.063Z,16.50
2019-04-11T16:42:38.946Z,16.43
2019-04-11T16:45:39.101Z,15.93
2019-04-11T16:48:06.544Z,16.87
2019-04-11T16:50:33.958Z,15.97
2019-04-11T16:53:01.609Z,17.67
2019-04-11T16:55:28.940Z,15.83
2019-04-11T16:57:56.308Z,15.00
2019-04-11T17:00:23.797Z,16.90
2019-04-11T17:02:54.662Z,15.20
2019-04-11T17:05:20.484Z,16.90
2019-04-11T17:08:06.276Z,15.83
2019-04-11T17:10:52.013Z,15.93
2019-04-11T17:13:19.531Z,16.20
2019-04-11T17:15:46.922Z,14.73
2019-04-11T17:18:14.228Z,15.70
2019-04-11T17:20:41.590Z,17.13
2019-04-11T17:23:09.114Z,16.73
2019-04-11T17:25:36.367Z,15.70
2019-04-11T17:28:03.577Z,16.77
2019-04-11T17:30:30.892Z,16.33
2019-04-11T17:32:58.128Z,16.73
2019-04-11T17:35:25.440Z,15.90
2019-04-11T17:37:52.723Z,16.50
2019-04-11T17:40:19.949Z,15.80
2019-04-11T17:42:47.277Z,16.53
2019-04-11T17:45:14.527Z,16.00
2019-04-11T17:47:44.757Z,16.20
2019-04-11T17:50:12.713Z,15.73
2019-04-11T17:52:40.188Z,17.70
2019-04-11T17:55:07.445Z,17.13
2019-04-11T17:57:35.054Z,16.63
2019-04-11T18:00:02.685Z,17.67
2019-04-11T18:02:30.198Z,15.93
2019-04-11T18:04:59.014Z,16.60
2019-04-11T18:07:26.665Z,15.60
2019-04-11T18:09:56.160Z,16.70
2019-04-11T18:12:23.790Z,14.90
2019-04-11T18:14:52.590Z,15.63
2019-04-11T18:17:20.106Z,17.23
2019-04-11T18:19:48.221Z,16.80
2019-04-11T18:22:15.684Z,15.10
2019-04-11T18:24:42.968Z,16.17
2019-04-11T18:27:10.327Z,17.70
2019-04-11T18:29:37.881Z,16.90
2019-04-11T18:32:05.316Z,17.40
2019-04-11T18:34:32.957Z,17.10
2019-04-11T18:37:02.197Z,18.33
2019-04-11T18:39:29.792Z,15.70
2019-04-11T18:41:57.734Z,17.80
2019-04-11T18:44:25.254Z,16.50
2019-04-11T18:46:52.561Z,16.70
2019-04-11T18:49:21.845Z,16.83
2019-04-11T18:51:50.826Z,17.20
2019-04-11T18:54:18.481Z,16.73
2019-04-11T18:56:45.791Z,16.17
2019-04-11T18:59:33.951Z,18.13
2019-04-11T19:02:02.070Z,15.67
2019-04-11T19:04:32.640Z,16.93
2019-04-11T19:06:59.435Z,18.00
2019-04-11T19:09:26.914Z,18.37
2019-04-11T19:11:54.582Z,17.00
2019-04-11T19:14:24.583Z,17.50
2019-04-11T19:16:51.118Z,17.77
2019-04-11T19:19:19.307Z,16.83
2019-04-11T19:21:50.785Z,16.03
2019-04-11T19:24:16.267Z,17.17
2019-04-11T19:26:46.085Z,15.87
2019-04-11T19:29:13.161Z,16.27
2019-04-11T19:31:41.202Z,17.17
2019-04-11T19:34:08.936Z,18.07
2019-04-11T19:36:36.581Z,17.93
2019-04-11T19:39:05.818Z,19.03
2019-04-11T19:41:33.229Z,18.43
2019-04-11T19:44:02.327Z,18.00
2019-04-11T19:46:29.680Z,20.17
2019-04-11T19:48:59.418Z,18.47
2019-04-11T19:51:28.975Z,17.70
2019-04-11T19:53:56.517Z,19.33
2019-04-11T19:56:41.067Z,19.17
2019-04-11T19:59:08.436Z,18.30
2019-04-11T20:01:35.789Z,19.07
2019-04-11T20:04:03.093Z,20.07
2019-04-11T20:06:32.311Z,18.93
2019-04-11T20:08:59.670Z,17.10
2019-04-11T20:11:29.380Z,17.67
2019-04-11T20:13:56.104Z,17.87
2019-04-11T20:16:23.569Z,19.13
2019-04-11T20:18:54.297Z,19.03
2019-04-11T20:21:20.809Z,19.40
2019-04-11T20:23:48.530Z,20.30
2019-04-11T20:26:19.938Z,18.57
2019-04-11T20:28:44.953Z,19.00
2019-04-11T20:31:12.217Z,19.07
2019-04-11T20:33:39.448Z,20.10
2019-04-11T20:36:08.140Z,20.50
2019-04-11T20:38:36.306Z,23.10
2019-04-11T20:41:03.970Z,19.80
2019-04-11T20:43:32.480Z,21.60
2019-04-11T20:46:00.118Z,20.87
2019-04-11T20:48:27.821Z,21.27
2019-04-11T20:50:56.641Z,22.63
2019-04-11T20:53:24.269Z,21.40
2019-04-11T20:55:52.622Z,22.10
2019-04-11T20:58:27.047Z,22.07
2019-04-11T21:00:55.184Z,22.20
2019-04-11T21:03:18.901Z,22.30
2019-04-11T21:05:46.178Z,20.80
2019-04-11T21:08:13.402Z,21.57
2019-04-11T21:10:40.770Z,21.77
2019-04-11T21:13:08.136Z,22.60
2019-04-11T21:15:35.428Z,24.00
2019-04-11T21:18:02.789Z,23.07
2019-04-11T21:20:29.994Z,19.37
2019-04-11T21:22:57.549Z,21.53
2019-04-11T21:25:26.093Z,21.50
2019-04-11T21:27:53.943Z,22.50
2019-04-11T21:30:21.195Z,23.50
2019-04-11T21:32:48.565Z,23.07
2019-04-11T21:35:15.815Z,22.80
2019-04-11T21:37:43.091Z,23.70
2019-04-11T21:40:23.129Z,22.13
2019-04-11T21:42:50.474Z,22.60
2019-04-11T21:45:17.852Z,22.80
2019-04-11T21:47:45.169Z,24.23
2019-04-11T21:50:12.710Z,22.63
2019-04-11T21:52:43.410Z,22.73
2019-04-11T21:55:10.191Z,21.47
2019-04-11T21:57:37.477Z,23.30
2019-04-11T22:00:10.379Z,21.10
2019-04-11T22:02:56.262Z,21.50
2019-04-11T22:05:41.994Z,20.20
2019-04-11T22:08:27.989Z,23.07
2019-04-11T22:11:13.913Z,22.30
2019-04-11T22:13:59.806Z,23.07
2019-04-11T22:16:27.856Z,23.07
2019-04-11T22:18:55.096Z,20.23
2019-04-11T22:21:22.324Z,22.90
2019-04-11T22:23:49.676Z,23.87
2019-04-11T22:26:16.961Z,21.60
2019-04-11T22:28:44.441Z,21.70
2019-04-11T22:31:11.775Z,22.17
2019-04-11T22:33:43.447Z,21.70
2019-04-11T22:36:10.683Z,21.10
2019-04-11T22:38:37.994Z,20.50
2019-04-11T22:41:05.289Z,21.43
2019-04-11T22:43:32.516Z,22.40
2019-04-11T22:45:59.953Z,22.20
2019-04-11T22:48:27.384Z,21.33
2019-04-11T22:50:54.794Z,22.00
2019-04-11T22:53:22.289Z,22.87
2019-04-11T22:55:49.500Z,22.03
2019-04-11T22:58:16.825Z,20.50
2019-04-11T23:00:45.832Z,21.50
2019-04-11T23:03:29.557Z,21.23
2019-04-11T23:05:56.793Z,20.73
2019-04-11T23:08:24.218Z,22.20
2019-04-11T23:10:51.499Z,22.83
2019-04-11T23:13:18.713Z,20.37
2019-04-11T23:15:46.030Z,21.33
2019-04-11T23:18:14.006Z,20.40
2019-04-11T23:20:44.234Z,21.33
2019-04-11T23:23:13.454Z,20.97
2019-04-11T23:25:40.534Z,21.10
2019-04-11T23:28:07.801Z,20.33
2019-04-11T23:30:35.281Z,21.13
2019-04-11T23:33:02.509Z,19.83
2019-04-11T23:35:29.776Z,20.43
2019-04-11T23:37:57.060Z,22.50
2019-04-11T23:40:24.288Z,21.50
2019-04-11T23:42:51.696Z,22.40
2019-04-11T23:45:22.637Z,22.80
2019-04-11T23:47:53.163Z,22.47
2019-04-11T23:50:19.308Z,21.77
2019-04-11T23:52:46.526Z,22.50
2019-04-11T23:55:14.648Z,21.37
2019-04-11T23:57:41.972Z,20.90
